sensor_id;sensor_type;location;lat;lon;timestamp;temperature;humidity
28247;DHT22;66191;53.178;22.058;2023-07-09T00:02:22;17.60;88.70
28247;DHT22;66191;53.178;22.058;2023-07-09T00:05:13;17.60;88.70
28247;DHT22;66191;53.178;22.058;2023-07-09T00:08:25;17.50;88.90
28247;DHT22;66191;53.178;22.058;2023-07-09T00:11:04;17.50;90.00
28247;DHT22;66191;53.178;22.058;2023-07-09T00:14:04;17.40;89.50
28247;DHT22;66191;53.178;22.058;2023-07-09T00:16:51;17.30;89.90
28247;DHT22;66191;53.178;22.058;2023-07-09T00:19:38;17.30;90.00
28247;DHT22;66191;53.178;22.058;2023-07-09T00:22:35;17.30;90.30
28247;DHT22;66191;53.178;22.058;2023-07-09T00:25:34;17.30;90.60
28247;DHT22;66191;53.178;22.058;2023-07-09T00:28:23;17.20;90.60
28247;DHT22;66191;53.178;22.058;2023-07-09T00:31:17;17.20;90.40
28247;DHT22;66191;53.178;22.058;2023-07-09T00:34:19;17.20;90.60
28247;DHT22;66191;53.178;22.058;2023-07-09T00:37:26;17.10;90.90
28247;DHT22;66191;53.178;22.058;2023-07-09T00:40:14;17.00;90.90
28247;DHT22;66191;53.178;22.058;2023-07-09T00:43:00;17.00;91.40
28247;DHT22;66191;53.178;22.058;2023-07-09T00:45:37;17.00;91.10
28247;DHT22;66191;53.178;22.058;2023-07-09T00:48:15;17.00;91.00
28247;DHT22;66191;53.178;22.058;2023-07-09T00:50:50;16.90;91.20
28247;DHT22;66191;53.178;22.058;2023-07-09T00:53:25;16.90;91.20
28247;DHT22;66191;53.178;22.058;2023-07-09T00:56:01;16.80;91.40
28247;DHT22;66191;53.178;22.058;2023-07-09T00:58:39;16.70;91.60
28247;DHT22;66191;53.178;22.058;2023-07-09T01:01:12;16.70;91.80
28247;DHT22;66191;53.178;22.058;2023-07-09T01:03:49;16.70;91.90
28247;DHT22;66191;53.178;22.058;2023-07-09T01:06:30;16.60;92.00
28247;DHT22;66191;53.178;22.058;2023-07-09T01:09:03;16.60;92.10
28247;DHT22;66191;53.178;22.058;2023-07-09T01:11:35;16.50;92.10
28247;DHT22;66191;53.178;22.058;2023-07-09T01:14:13;16.60;92.20
28247;DHT22;66191;53.178;22.058;2023-07-09T01:16:50;16.40;92.40
28247;DHT22;66191;53.178;22.058;2023-07-09T01:19:29;16.40;92.50
28247;DHT22;66191;53.178;22.058;2023-07-09T01:22:03;16.40;92.60
28247;DHT22;66191;53.178;22.058;2023-07-09T01:24:57;16.30;92.60
28247;DHT22;66191;53.178;22.058;2023-07-09T01:27:35;16.30;93.00
28247;DHT22;66191;53.178;22.058;2023-07-09T01:30:11;16.30;92.80
28247;DHT22;66191;53.178;22.058;2023-07-09T01:32:46;16.30;92.80
28247;DHT22;66191;53.178;22.058;2023-07-09T01:35:19;16.20;92.70
28247;DHT22;66191;53.178;22.058;2023-07-09T01:37:56;16.20;92.80
28247;DHT22;66191;53.178;22.058;2023-07-09T01:40:31;16.10;93.00
28247;DHT22;66191;53.178;22.058;2023-07-09T01:43:07;16.10;93.10
28247;DHT22;66191;53.178;22.058;2023-07-09T01:45:41;16.00;93.30
28247;DHT22;66191;53.178;22.058;2023-07-09T01:48:12;16.10;93.30
28247;DHT22;66191;53.178;22.058;2023-07-09T01:50:44;16.00;93.40
28247;DHT22;66191;53.178;22.058;2023-07-09T01:53:22;15.90;93.60
28247;DHT22;66191;53.178;22.058;2023-07-09T01:55:53;15.90;93.60
28247;DHT22;66191;53.178;22.058;2023-07-09T01:58:24;15.90;93.60
28247;DHT22;66191;53.178;22.058;2023-07-09T02:00:59;15.90;94.10
28247;DHT22;66191;53.178;22.058;2023-07-09T02:03:30;15.90;93.60
28247;DHT22;66191;53.178;22.058;2023-07-09T02:06:02;15.80;93.60
28247;DHT22;66191;53.178;22.058;2023-07-09T02:08:40;15.80;93.70
28247;DHT22;66191;53.178;22.058;2023-07-09T02:11:12;15.90;93.80
28247;DHT22;66191;53.178;22.058;2023-07-09T02:13:45;15.90;93.80
28247;DHT22;66191;53.178;22.058;2023-07-09T02:16:17;15.80;93.90
28247;DHT22;66191;53.178;22.058;2023-07-09T02:18:48;15.80;93.90
28247;DHT22;66191;53.178;22.058;2023-07-09T02:21:19;15.80;94.00
28247;DHT22;66191;53.178;22.058;2023-07-09T02:23:52;15.80;94.10
28247;DHT22;66191;53.178;22.058;2023-07-09T02:26:25;15.80;94.60
28247;DHT22;66191;53.178;22.058;2023-07-09T02:28:56;15.70;94.20
28247;DHT22;66191;53.178;22.058;2023-07-09T02:31:29;15.60;94.30
28247;DHT22;66191;53.178;22.058;2023-07-09T02:34:02;15.60;94.80
28247;DHT22;66191;53.178;22.058;2023-07-09T02:36:33;15.70;94.50
28247;DHT22;66191;53.178;22.058;2023-07-09T02:39:07;15.70;94.50
28247;DHT22;66191;53.178;22.058;2023-07-09T02:41:38;15.70;95.10
28247;DHT22;66191;53.178;22.058;2023-07-09T02:44:09;15.60;94.70
28247;DHT22;66191;53.178;22.058;2023-07-09T02:46:41;15.70;94.80
28247;DHT22;66191;53.178;22.058;2023-07-09T02:49:14;15.90;94.70
28247;DHT22;66191;53.178;22.058;2023-07-09T02:51:45;16.00;94.50
28247;DHT22;66191;53.178;22.058;2023-07-09T02:54:18;16.00;94.40
28247;DHT22;66191;53.178;22.058;2023-07-09T02:56:50;16.10;94.70
28247;DHT22;66191;53.178;22.058;2023-07-09T02:59:20;16.10;94.10
28247;DHT22;66191;53.178;22.058;2023-07-09T03:01:58;16.20;93.90
28247;DHT22;66191;53.178;22.058;2023-07-09T03:04:34;16.40;93.80
28247;DHT22;66191;53.178;22.058;2023-07-09T03:07:11;16.40;93.80
28247;DHT22;66191;53.178;22.058;2023-07-09T03:09:47;16.50;93.70
28247;DHT22;66191;53.178;22.058;2023-07-09T03:12:22;16.50;93.50
28247;DHT22;66191;53.178;22.058;2023-07-09T03:14:58;16.60;93.40
28247;DHT22;66191;53.178;22.058;2023-07-09T03:17:33;16.80;93.40
28247;DHT22;66191;53.178;22.058;2023-07-09T03:20:08;16.90;93.10
28247;DHT22;66191;53.178;22.058;2023-07-09T03:22:44;17.00;92.90
28247;DHT22;66191;53.178;22.058;2023-07-09T03:25:31;17.10;92.70
28247;DHT22;66191;53.178;22.058;2023-07-09T03:28:03;17.20;92.60
28247;DHT22;66191;53.178;22.058;2023-07-09T03:30:35;17.20;92.50
28247;DHT22;66191;53.178;22.058;2023-07-09T03:33:17;17.20;92.40
28247;DHT22;66191;53.178;22.058;2023-07-09T03:35:54;17.30;92.30
28247;DHT22;66191;53.178;22.058;2023-07-09T03:38:30;17.40;92.20
28247;DHT22;66191;53.178;22.058;2023-07-09T03:41:11;17.50;92.00
28247;DHT22;66191;53.178;22.058;2023-07-09T03:43:48;17.50;91.80
28247;DHT22;66191;53.178;22.058;2023-07-09T03:46:25;17.60;91.80
28247;DHT22;66191;53.178;22.058;2023-07-09T03:48:59;17.70;91.70
28247;DHT22;66191;53.178;22.058;2023-07-09T03:51:30;17.80;91.60
28247;DHT22;66191;53.178;22.058;2023-07-09T03:54:07;18.00;91.50
28247;DHT22;66191;53.178;22.058;2023-07-09T03:56:45;18.10;91.30
28247;DHT22;66191;53.178;22.058;2023-07-09T03:59:26;18.30;91.00
28247;DHT22;66191;53.178;22.058;2023-07-09T04:02:06;18.30;90.80
28247;DHT22;66191;53.178;22.058;2023-07-09T04:04:45;18.40;90.60
28247;DHT22;66191;53.178;22.058;2023-07-09T04:07:22;18.50;90.50
28247;DHT22;66191;53.178;22.058;2023-07-09T04:09:57;18.50;90.20
28247;DHT22;66191;53.178;22.058;2023-07-09T04:12:35;18.50;90.30
28247;DHT22;66191;53.178;22.058;2023-07-09T04:15:11;18.70;90.30
28247;DHT22;66191;53.178;22.058;2023-07-09T04:17:47;18.70;90.00
28247;DHT22;66191;53.178;22.058;2023-07-09T04:20:37;18.70;90.10
28247;DHT22;66191;53.178;22.058;2023-07-09T04:23:13;18.80;90.00
28247;DHT22;66191;53.178;22.058;2023-07-09T04:25:47;18.90;89.40
28247;DHT22;66191;53.178;22.058;2023-07-09T04:28:30;18.90;89.30
28247;DHT22;66191;53.178;22.058;2023-07-09T04:31:01;18.90;89.10
28247;DHT22;66191;53.178;22.058;2023-07-09T04:33:33;18.90;89.60
28247;DHT22;66191;53.178;22.058;2023-07-09T04:36:09;19.00;89.90
28247;DHT22;66191;53.178;22.058;2023-07-09T04:38:43;18.80;89.60
28247;DHT22;66191;53.178;22.058;2023-07-09T04:41:18;18.80;90.00
28247;DHT22;66191;53.178;22.058;2023-07-09T04:43:55;18.70;90.10
28247;DHT22;66191;53.178;22.058;2023-07-09T04:46:26;18.60;90.30
28247;DHT22;66191;53.178;22.058;2023-07-09T04:49:00;18.60;90.60
28247;DHT22;66191;53.178;22.058;2023-07-09T04:51:37;18.50;90.70
28247;DHT22;66191;53.178;22.058;2023-07-09T04:54:13;18.50;90.90
28247;DHT22;66191;53.178;22.058;2023-07-09T04:56:46;18.40;91.10
28247;DHT22;66191;53.178;22.058;2023-07-09T04:59:28;18.40;91.20
28247;DHT22;66191;53.178;22.058;2023-07-09T05:02:12;18.40;91.40
28247;DHT22;66191;53.178;22.058;2023-07-09T05:04:47;18.40;91.40
28247;DHT22;66191;53.178;22.058;2023-07-09T05:07:39;18.40;91.50
28247;DHT22;66191;53.178;22.058;2023-07-09T05:10:20;18.40;91.70
28247;DHT22;66191;53.178;22.058;2023-07-09T05:13:03;18.40;91.80
28247;DHT22;66191;53.178;22.058;2023-07-09T05:15:40;18.20;92.00
28247;DHT22;66191;53.178;22.058;2023-07-09T05:18:16;18.20;92.40
28247;DHT22;66191;53.178;22.058;2023-07-09T05:20:48;18.10;92.40
28247;DHT22;66191;53.178;22.058;2023-07-09T05:23:23;18.10;92.60
28247;DHT22;66191;53.178;22.058;2023-07-09T05:25:58;18.10;92.70
28247;DHT22;66191;53.178;22.058;2023-07-09T05:28:34;18.10;92.60
28247;DHT22;66191;53.178;22.058;2023-07-09T05:31:14;18.10;92.60
28247;DHT22;66191;53.178;22.058;2023-07-09T05:33:50;18.20;92.60
28247;DHT22;66191;53.178;22.058;2023-07-09T05:36:21;18.20;92.50
28247;DHT22;66191;53.178;22.058;2023-07-09T05:38:58;18.30;92.40
28247;DHT22;66191;53.178;22.058;2023-07-09T05:41:29;18.30;92.40
28247;DHT22;66191;53.178;22.058;2023-07-09T05:44:00;18.30;92.40
28247;DHT22;66191;53.178;22.058;2023-07-09T05:46:37;18.40;92.40
28247;DHT22;66191;53.178;22.058;2023-07-09T05:49:09;18.40;92.40
28247;DHT22;66191;53.178;22.058;2023-07-09T05:51:41;18.50;92.20
28247;DHT22;66191;53.178;22.058;2023-07-09T05:54:12;18.60;92.20
28247;DHT22;66191;53.178;22.058;2023-07-09T05:56:44;18.70;92.10
28247;DHT22;66191;53.178;22.058;2023-07-09T05:59:15;18.70;91.90
28247;DHT22;66191;53.178;22.058;2023-07-09T06:01:48;18.70;92.20
28247;DHT22;66191;53.178;22.058;2023-07-09T06:04:20;18.80;92.30
28247;DHT22;66191;53.178;22.058;2023-07-09T06:06:55;18.90;91.90
28247;DHT22;66191;53.178;22.058;2023-07-09T06:09:26;18.90;91.90
28247;DHT22;66191;53.178;22.058;2023-07-09T06:11:57;19.00;92.00
28247;DHT22;66191;53.178;22.058;2023-07-09T06:14:31;19.10;91.70
28247;DHT22;66191;53.178;22.058;2023-07-09T06:17:04;19.10;91.50
28247;DHT22;66191;53.178;22.058;2023-07-09T06:19:41;19.20;91.50
28247;DHT22;66191;53.178;22.058;2023-07-09T06:22:46;19.30;91.70
28247;DHT22;66191;53.178;22.058;2023-07-09T06:26:01;19.40;91.30
28247;DHT22;66191;53.178;22.058;2023-07-09T06:29:37;19.60;91.40
28247;DHT22;66191;53.178;22.058;2023-07-09T06:36:29;19.90;90.80
28247;DHT22;66191;53.178;22.058;2023-07-09T06:39:28;20.00;90.40
28247;DHT22;66191;53.178;22.058;2023-07-09T06:42:48;19.90;90.20
28247;DHT22;66191;53.178;22.058;2023-07-09T06:45:49;19.90;90.20
28247;DHT22;66191;53.178;22.058;2023-07-09T06:48:46;20.00;90.10
28247;DHT22;66191;53.178;22.058;2023-07-09T06:51:57;20.10;90.00
28247;DHT22;66191;53.178;22.058;2023-07-09T06:54:43;20.20;90.30
28247;DHT22;66191;53.178;22.058;2023-07-09T06:57:57;20.30;90.00
28247;DHT22;66191;53.178;22.058;2023-07-09T07:01:04;20.40;89.40
28247;DHT22;66191;53.178;22.058;2023-07-09T07:04:43;20.40;88.60
28247;DHT22;66191;53.178;22.058;2023-07-09T07:15:21;20.60;87.20
28247;DHT22;66191;53.178;22.058;2023-07-09T07:21:52;20.70;86.20
28247;DHT22;66191;53.178;22.058;2023-07-09T07:25:23;20.80;86.40
28247;DHT22;66191;53.178;22.058;2023-07-09T07:28:18;20.80;85.80
28247;DHT22;66191;53.178;22.058;2023-07-09T07:31:08;20.90;86.40
28247;DHT22;66191;53.178;22.058;2023-07-09T07:33:41;21.00;86.20
28247;DHT22;66191;53.178;22.058;2023-07-09T07:36:17;21.00;86.00
28247;DHT22;66191;53.178;22.058;2023-07-09T07:39:01;21.10;85.40
28247;DHT22;66191;53.178;22.058;2023-07-09T07:41:58;21.20;84.40
28247;DHT22;66191;53.178;22.058;2023-07-09T07:44:57;21.20;83.70
28247;DHT22;66191;53.178;22.058;2023-07-09T07:47:35;21.20;83.80
28247;DHT22;66191;53.178;22.058;2023-07-09T07:50:08;21.30;82.30
28247;DHT22;66191;53.178;22.058;2023-07-09T07:52:45;21.30;81.70
28247;DHT22;66191;53.178;22.058;2023-07-09T07:55:59;21.40;80.90
28247;DHT22;66191;53.178;22.058;2023-07-09T07:59:18;21.40;81.60
28247;DHT22;66191;53.178;22.058;2023-07-09T08:01:49;21.50;82.30
28247;DHT22;66191;53.178;22.058;2023-07-09T08:04:31;21.60;82.20
28247;DHT22;66191;53.178;22.058;2023-07-09T08:07:08;21.70;80.90
28247;DHT22;66191;53.178;22.058;2023-07-09T08:09:47;21.70;78.70
28247;DHT22;66191;53.178;22.058;2023-07-09T08:12:25;21.70;79.30
28247;DHT22;66191;53.178;22.058;2023-07-09T08:15:09;21.70;78.60
28247;DHT22;66191;53.178;22.058;2023-07-09T08:17:45;21.80;78.90
28247;DHT22;66191;53.178;22.058;2023-07-09T08:20:32;21.90;77.40
28247;DHT22;66191;53.178;22.058;2023-07-09T08:23:06;22.00;76.90
28247;DHT22;66191;53.178;22.058;2023-07-09T08:25:38;22.00;76.20
28247;DHT22;66191;53.178;22.058;2023-07-09T08:28:26;22.10;75.60
28247;DHT22;66191;53.178;22.058;2023-07-09T08:31:02;22.20;73.20
28247;DHT22;66191;53.178;22.058;2023-07-09T08:34:12;22.20;74.30
28247;DHT22;66191;53.178;22.058;2023-07-09T08:36:57;22.30;73.60
28247;DHT22;66191;53.178;22.058;2023-07-09T08:39:37;22.20;74.60
28247;DHT22;66191;53.178;22.058;2023-07-09T08:42:49;22.20;74.70
28247;DHT22;66191;53.178;22.058;2023-07-09T08:46:20;22.20;75.30
28247;DHT22;66191;53.178;22.058;2023-07-09T08:49:02;22.20;73.00
28247;DHT22;66191;53.178;22.058;2023-07-09T08:51:43;22.10;72.80
28247;DHT22;66191;53.178;22.058;2023-07-09T08:54:28;22.20;73.20
28247;DHT22;66191;53.178;22.058;2023-07-09T08:57:14;22.20;73.60
28247;DHT22;66191;53.178;22.058;2023-07-09T08:59:46;22.30;73.80
28247;DHT22;66191;53.178;22.058;2023-07-09T09:02:30;22.30;73.40
28247;DHT22;66191;53.178;22.058;2023-07-09T09:05:03;22.40;71.70
28247;DHT22;66191;53.178;22.058;2023-07-09T09:07:39;22.30;71.50
28247;DHT22;66191;53.178;22.058;2023-07-09T09:10:18;22.30;72.20
28247;DHT22;66191;53.178;22.058;2023-07-09T09:13:06;22.30;70.80
28247;DHT22;66191;53.178;22.058;2023-07-09T09:15:51;22.40;68.70
28247;DHT22;66191;53.178;22.058;2023-07-09T09:18:33;22.40;67.80
28247;DHT22;66191;53.178;22.058;2023-07-09T09:21:16;22.40;67.00
28247;DHT22;66191;53.178;22.058;2023-07-09T09:23:58;22.50;69.40
28247;DHT22;66191;53.178;22.058;2023-07-09T09:26:45;22.50;70.60
28247;DHT22;66191;53.178;22.058;2023-07-09T09:29:20;22.60;71.00
28247;DHT22;66191;53.178;22.058;2023-07-09T09:32:02;22.60;71.50
28247;DHT22;66191;53.178;22.058;2023-07-09T09:34:44;22.60;70.30
28247;DHT22;66191;53.178;22.058;2023-07-09T09:37:30;22.60;67.70
28247;DHT22;66191;53.178;22.058;2023-07-09T09:40:08;22.60;66.00
28247;DHT22;66191;53.178;22.058;2023-07-09T09:42:54;22.50;68.60
28247;DHT22;66191;53.178;22.058;2023-07-09T09:45:39;22.50;68.10
28247;DHT22;66191;53.178;22.058;2023-07-09T09:48:31;22.60;67.00
28247;DHT22;66191;53.178;22.058;2023-07-09T09:51:13;22.60;65.80
28247;DHT22;66191;53.178;22.058;2023-07-09T09:53:58;22.70;66.70
28247;DHT22;66191;53.178;22.058;2023-07-09T09:56:36;22.80;67.30
28247;DHT22;66191;53.178;22.058;2023-07-09T09:59:19;22.80;67.00
28247;DHT22;66191;53.178;22.058;2023-07-09T10:02:24;22.90;67.20
28247;DHT22;66191;53.178;22.058;2023-07-09T10:05:31;23.00;66.20
28247;DHT22;66191;53.178;22.058;2023-07-09T10:08:17;23.00;65.40
28247;DHT22;66191;53.178;22.058;2023-07-09T10:11:19;23.10;60.70
28247;DHT22;66191;53.178;22.058;2023-07-09T10:14:36;23.20;62.20
28247;DHT22;66191;53.178;22.058;2023-07-09T10:17:57;23.20;61.80
28247;DHT22;66191;53.178;22.058;2023-07-09T10:21:04;23.10;60.90
28247;DHT22;66191;53.178;22.058;2023-07-09T10:24:21;23.20;60.60
28247;DHT22;66191;53.178;22.058;2023-07-09T10:27:15;23.30;62.20
28247;DHT22;66191;53.178;22.058;2023-07-09T10:33:09;23.40;59.40
28247;DHT22;66191;53.178;22.058;2023-07-09T10:36:04;23.40;57.80
28247;DHT22;66191;53.178;22.058;2023-07-09T10:39:04;23.50;59.30
28247;DHT22;66191;53.178;22.058;2023-07-09T10:41:50;23.50;60.20
28247;DHT22;66191;53.178;22.058;2023-07-09T10:44:36;23.50;60.10
28247;DHT22;66191;53.178;22.058;2023-07-09T10:47:20;23.50;60.10
28247;DHT22;66191;53.178;22.058;2023-07-09T10:50:22;23.60;60.00
28247;DHT22;66191;53.178;22.058;2023-07-09T10:53:12;23.60;59.60
28247;DHT22;66191;53.178;22.058;2023-07-09T10:55:55;23.70;59.30
28247;DHT22;66191;53.178;22.058;2023-07-09T10:58:43;23.70;59.80
28247;DHT22;66191;53.178;22.058;2023-07-09T11:01:29;23.70;59.90
28247;DHT22;66191;53.178;22.058;2023-07-09T11:04:15;23.70;60.00
28247;DHT22;66191;53.178;22.058;2023-07-09T11:10:22;23.90;56.40
28247;DHT22;66191;53.178;22.058;2023-07-09T11:13:19;23.80;55.30
28247;DHT22;66191;53.178;22.058;2023-07-09T11:19:17;23.90;57.80
28247;DHT22;66191;53.178;22.058;2023-07-09T11:22:22;24.00;56.30
28247;DHT22;66191;53.178;22.058;2023-07-09T11:25:28;24.00;56.60
28247;DHT22;66191;53.178;22.058;2023-07-09T11:28:16;24.00;55.70
28247;DHT22;66191;53.178;22.058;2023-07-09T11:31:06;24.00;57.00
28247;DHT22;66191;53.178;22.058;2023-07-09T11:36:56;24.10;55.60
28247;DHT22;66191;53.178;22.058;2023-07-09T11:39:50;24.20;54.10
28247;DHT22;66191;53.178;22.058;2023-07-09T11:42:52;24.20;54.50
28247;DHT22;66191;53.178;22.058;2023-07-09T11:45:55;24.20;54.90
28247;DHT22;66191;53.178;22.058;2023-07-09T11:48:52;24.30;53.00
28247;DHT22;66191;53.178;22.058;2023-07-09T11:51:41;24.30;53.70
28247;DHT22;66191;53.178;22.058;2023-07-09T11:54:18;24.40;53.90
28247;DHT22;66191;53.178;22.058;2023-07-09T11:56:58;24.50;53.30
28247;DHT22;66191;53.178;22.058;2023-07-09T11:59:43;24.50;52.50
28247;DHT22;66191;53.178;22.058;2023-07-09T12:02:31;24.50;53.60
28247;DHT22;66191;53.178;22.058;2023-07-09T12:05:20;24.50;53.20
28247;DHT22;66191;53.178;22.058;2023-07-09T12:08:07;24.50;52.40
28247;DHT22;66191;53.178;22.058;2023-07-09T12:10:47;24.60;53.80
28247;DHT22;66191;53.178;22.058;2023-07-09T12:13:39;24.60;54.00
28247;DHT22;66191;53.178;22.058;2023-07-09T12:16:34;24.70;53.40
28247;DHT22;66191;53.178;22.058;2023-07-09T12:19:09;24.60;53.00
28247;DHT22;66191;53.178;22.058;2023-07-09T12:21:49;24.50;54.40
28247;DHT22;66191;53.178;22.058;2023-07-09T12:24:36;24.50;53.40
28247;DHT22;66191;53.178;22.058;2023-07-09T12:27:22;24.60;53.70
28247;DHT22;66191;53.178;22.058;2023-07-09T12:29:59;24.60;52.80
28247;DHT22;66191;53.178;22.058;2023-07-09T12:32:42;24.70;53.00
28247;DHT22;66191;53.178;22.058;2023-07-09T12:35:15;24.70;52.60
28247;DHT22;66191;53.178;22.058;2023-07-09T12:38:03;24.70;51.90
28247;DHT22;66191;53.178;22.058;2023-07-09T12:40:38;24.70;52.80
28247;DHT22;66191;53.178;22.058;2023-07-09T12:43:25;24.70;52.30
28247;DHT22;66191;53.178;22.058;2023-07-09T12:46:09;24.70;52.00
28247;DHT22;66191;53.178;22.058;2023-07-09T12:48:45;24.80;52.60
28247;DHT22;66191;53.178;22.058;2023-07-09T12:51:23;24.90;52.20
28247;DHT22;66191;53.178;22.058;2023-07-09T12:54:13;24.80;52.30
28247;DHT22;66191;53.178;22.058;2023-07-09T13:01:06;24.80;53.20
28247;DHT22;66191;53.178;22.058;2023-07-09T13:04:07;24.90;53.30
28247;DHT22;66191;53.178;22.058;2023-07-09T13:10:27;25.00;53.10
28247;DHT22;66191;53.178;22.058;2023-07-09T13:13:34;25.00;52.80
28247;DHT22;66191;53.178;22.058;2023-07-09T13:16:15;25.00;53.50
28247;DHT22;66191;53.178;22.058;2023-07-09T13:18:50;25.10;53.50
28247;DHT22;66191;53.178;22.058;2023-07-09T13:21:52;25.10;53.20
28247;DHT22;66191;53.178;22.058;2023-07-09T13:24:47;25.20;53.80
28247;DHT22;66191;53.178;22.058;2023-07-09T13:28:44;25.20;54.80
28247;DHT22;66191;53.178;22.058;2023-07-09T13:31:58;25.30;51.80
28247;DHT22;66191;53.178;22.058;2023-07-09T13:34:32;25.20;51.70
28247;DHT22;66191;53.178;22.058;2023-07-09T13:37:23;25.20;50.60
28247;DHT22;66191;53.178;22.058;2023-07-09T13:40:11;25.20;50.90
28247;DHT22;66191;53.178;22.058;2023-07-09T13:42:57;25.20;51.80
28247;DHT22;66191;53.178;22.058;2023-07-09T13:45:40;25.20;52.00
28247;DHT22;66191;53.178;22.058;2023-07-09T13:48:19;25.20;52.40
28247;DHT22;66191;53.178;22.058;2023-07-09T13:50:58;25.20;52.50
28247;DHT22;66191;53.178;22.058;2023-07-09T13:53:40;25.30;53.10
28247;DHT22;66191;53.178;22.058;2023-07-09T13:56:32;25.40;50.60
28247;DHT22;66191;53.178;22.058;2023-07-09T13:59:13;25.30;51.90
28247;DHT22;66191;53.178;22.058;2023-07-09T14:01:49;25.40;52.10
28247;DHT22;66191;53.178;22.058;2023-07-09T14:04:26;25.40;51.80
28247;DHT22;66191;53.178;22.058;2023-07-09T14:06:58;25.30;52.20
28247;DHT22;66191;53.178;22.058;2023-07-09T14:09:33;25.30;52.90
28247;DHT22;66191;53.178;22.058;2023-07-09T14:12:08;25.40;53.00
28247;DHT22;66191;53.178;22.058;2023-07-09T14:15:18;25.40;53.00
28247;DHT22;66191;53.178;22.058;2023-07-09T14:18:08;25.40;51.00
28247;DHT22;66191;53.178;22.058;2023-07-09T14:20:44;25.40;51.80
28247;DHT22;66191;53.178;22.058;2023-07-09T14:23:36;25.40;52.20
28247;DHT22;66191;53.178;22.058;2023-07-09T14:26:32;25.50;52.50
28247;DHT22;66191;53.178;22.058;2023-07-09T14:29:11;25.40;52.80
28247;DHT22;66191;53.178;22.058;2023-07-09T14:31:49;25.40;52.90
28247;DHT22;66191;53.178;22.058;2023-07-09T14:34:30;25.40;53.20
28247;DHT22;66191;53.178;22.058;2023-07-09T14:37:31;25.40;51.70
28247;DHT22;66191;53.178;22.058;2023-07-09T14:40:07;25.40;52.40
28247;DHT22;66191;53.178;22.058;2023-07-09T14:43:07;25.50;52.50
28247;DHT22;66191;53.178;22.058;2023-07-09T14:45:57;25.50;52.30
28247;DHT22;66191;53.178;22.058;2023-07-09T14:48:34;25.40;52.50
28247;DHT22;66191;53.178;22.058;2023-07-09T14:51:13;25.40;52.70
28247;DHT22;66191;53.178;22.058;2023-07-09T14:53:55;25.50;52.80
28247;DHT22;66191;53.178;22.058;2023-07-09T14:56:43;25.50;52.60
28247;DHT22;66191;53.178;22.058;2023-07-09T14:59:32;25.50;53.00
28247;DHT22;66191;53.178;22.058;2023-07-09T15:02:23;25.60;53.30
28247;DHT22;66191;53.178;22.058;2023-07-09T15:05:01;25.60;52.90
28247;DHT22;66191;53.178;22.058;2023-07-09T15:07:56;25.60;53.20
28247;DHT22;66191;53.178;22.058;2023-07-09T15:10:58;25.60;52.80
28247;DHT22;66191;53.178;22.058;2023-07-09T15:13:46;25.60;52.70
28247;DHT22;66191;53.178;22.058;2023-07-09T15:16:26;25.60;52.90
28247;DHT22;66191;53.178;22.058;2023-07-09T15:19:10;25.50;52.10
28247;DHT22;66191;53.178;22.058;2023-07-09T15:21:55;25.50;52.10
28247;DHT22;66191;53.178;22.058;2023-07-09T15:24:43;25.50;52.10
28247;DHT22;66191;53.178;22.058;2023-07-09T15:27:28;25.50;52.60
28247;DHT22;66191;53.178;22.058;2023-07-09T15:30:33;25.50;53.10
28247;DHT22;66191;53.178;22.058;2023-07-09T15:33:16;25.50;52.90
28247;DHT22;66191;53.178;22.058;2023-07-09T15:35:55;25.40;53.10
28247;DHT22;66191;53.178;22.058;2023-07-09T15:38:38;25.50;53.60
28247;DHT22;66191;53.178;22.058;2023-07-09T15:41:23;25.50;53.20
28247;DHT22;66191;53.178;22.058;2023-07-09T15:44:04;25.40;52.60
28247;DHT22;66191;53.178;22.058;2023-07-09T15:47:02;25.40;52.60
28247;DHT22;66191;53.178;22.058;2023-07-09T15:49:41;25.40;53.30
28247;DHT22;66191;53.178;22.058;2023-07-09T15:52:21;25.40;52.60
28247;DHT22;66191;53.178;22.058;2023-07-09T15:55:24;25.30;53.20
28247;DHT22;66191;53.178;22.058;2023-07-09T15:58:25;25.30;53.90
28247;DHT22;66191;53.178;22.058;2023-07-09T16:00:57;25.30;54.20
28247;DHT22;66191;53.178;22.058;2023-07-09T16:03:29;25.30;53.80
28247;DHT22;66191;53.178;22.058;2023-07-09T16:06:05;25.30;53.70
28247;DHT22;66191;53.178;22.058;2023-07-09T16:08:56;25.30;54.00
28247;DHT22;66191;53.178;22.058;2023-07-09T16:11:34;25.30;54.20
28247;DHT22;66191;53.178;22.058;2023-07-09T16:14:35;25.30;54.20
28247;DHT22;66191;53.178;22.058;2023-07-09T16:17:17;25.20;54.30
28247;DHT22;66191;53.178;22.058;2023-07-09T16:20:07;25.10;54.50
28247;DHT22;66191;53.178;22.058;2023-07-09T16:22:49;25.10;55.00
28247;DHT22;66191;53.178;22.058;2023-07-09T16:25:34;25.10;55.20
28247;DHT22;66191;53.178;22.058;2023-07-09T16:28:13;25.10;55.20
28247;DHT22;66191;53.178;22.058;2023-07-09T16:30:49;25.10;54.70
28247;DHT22;66191;53.178;22.058;2023-07-09T16:33:28;25.10;54.60
28247;DHT22;66191;53.178;22.058;2023-07-09T16:36:07;25.10;55.00
28247;DHT22;66191;53.178;22.058;2023-07-09T16:38:49;25.00;54.90
28247;DHT22;66191;53.178;22.058;2023-07-09T16:41:29;25.00;54.90
28247;DHT22;66191;53.178;22.058;2023-07-09T16:44:12;25.00;55.40
28247;DHT22;66191;53.178;22.058;2023-07-09T16:47:09;24.90;54.40
28247;DHT22;66191;53.178;22.058;2023-07-09T16:49:56;24.90;54.40
28247;DHT22;66191;53.178;22.058;2023-07-09T16:56:41;24.90;54.70
28247;DHT22;66191;53.178;22.058;2023-07-09T16:59:36;24.90;55.00
28247;DHT22;66191;53.178;22.058;2023-07-09T17:02:29;24.90;54.90
28247;DHT22;66191;53.178;22.058;2023-07-09T17:08:41;24.80;55.20
28247;DHT22;66191;53.178;22.058;2023-07-09T17:11:33;24.70;55.10
28247;DHT22;66191;53.178;22.058;2023-07-09T17:14:34;24.70;55.30
28247;DHT22;66191;53.178;22.058;2023-07-09T17:17:34;24.70;55.10
28247;DHT22;66191;53.178;22.058;2023-07-09T17:20:16;24.70;55.40
28247;DHT22;66191;53.178;22.058;2023-07-09T17:23:11;24.70;55.60
28247;DHT22;66191;53.178;22.058;2023-07-09T17:25:48;24.60;55.60
28247;DHT22;66191;53.178;22.058;2023-07-09T17:28:55;24.60;55.70
28247;DHT22;66191;53.178;22.058;2023-07-09T17:31:31;24.60;55.70
28247;DHT22;66191;53.178;22.058;2023-07-09T17:34:07;24.50;55.90
28247;DHT22;66191;53.178;22.058;2023-07-09T17:37:11;24.50;56.00
28247;DHT22;66191;53.178;22.058;2023-07-09T17:39:49;24.50;56.20
28247;DHT22;66191;53.178;22.058;2023-07-09T17:42:34;24.40;55.90
28247;DHT22;66191;53.178;22.058;2023-07-09T17:45:30;24.40;56.30